Estación Meteorológica Peña el Pijo (Robertgarden) [ 11/16/18 14:21:02 CET ]

Fecha Hora Presion(HPa) Temp (°C) Humedad % Rocio (°C) Viento ( m/s) Direccion Lluvia 1Hora(mm) Lluvia 24H(mm) LLuvia Total(mm)
2018-Sep-23 01:01:46 1017.800 14.8 75 10.4         354.31
2018-Sep-23 02:01:49 1017.500 13.9 77 9.9         354.31
2018-Sep-23 03:01:44 1017.200 13.8 78 10.0         354.31
2018-Sep-23 04:03:11 1017.000 12.9 80 9.5         354.31
2018-Sep-23 05:01:50 1016.600 12.6 81 9.4         354.31
2018-Sep-23 06:01:52 1016.600 12.5 81 9.3         354.31
2018-Sep-23 07:01:49 1016.500 12.4 82 9.4         354.31
2018-Sep-23 08:01:50 1016.900 11.9 83 9.1         354.31
2018-Sep-23 09:01:37 1016.900 12.8 84 10.1         354.31
2018-Sep-23 10:01:49 1017.400 20.4 74 15.6         354.31
2018-Sep-23 11:01:34 1017.600 26.6 49 15.0         354.31
2018-Sep-23 12:01:43 1017.400 31.1 36 14.2         354.31
2018-Sep-23 13:01:43 1017.300 31.4 33 13.1         354.31
2018-Sep-23 14:02:01 1017.000 31.2 31 12.0         354.31
2018-Sep-23 15:01:52 1016.200 32.8 30 13.0         354.31
2018-Sep-23 16:01:48 1015.700 31.9 29 11.6         354.31
2018-Sep-23 17:01:49 1015.400 32.9 28 11.9         354.31
2018-Sep-23 18:01:56 1015.200 30.4 32 11.8         354.31
2018-Sep-23 19:01:51 1015.200 27.9 34 10.5         354.31
2018-Sep-23 20:01:32 1015.600 23.9 43 10.5         354.31
2018-Sep-23 21:01:52 1016.000 19.9 52 9.8         354.31
2018-Sep-23 22:01:47 1016.600 17.8 61 10.1         354.31
2018-Sep-23 23:01:46 1016.900 16.1 66 9.8         354.31

Temperatura Máxima:32°    Temperatura Mínima:11°
Presión Máxima:1017.800 Hpa    Presión Mínima:1015.200 Hpa


Volver